createdAt,value
2019-01-31T00:01:45.684Z,21.20
2019-01-31T00:04:52.410Z,21.80
2019-01-31T00:07:28.968Z,21.33
2019-01-31T00:09:59.422Z,21.17
2019-01-31T00:12:35.609Z,21.60
2019-01-31T00:15:11.289Z,20.53
2019-01-31T00:17:50.595Z,22.07
2019-01-31T00:20:23.995Z,21.67
2019-01-31T00:23:17.281Z,22.37
2019-01-31T00:26:02.814Z,22.37
2019-01-31T00:28:45.693Z,22.87
2019-01-31T00:31:37.030Z,24.17
2019-01-31T00:34:13.211Z,23.00
2019-01-31T00:36:58.896Z,21.60
2019-01-31T00:39:29.385Z,21.80
2019-01-31T00:42:17.705Z,22.13
2019-01-31T00:44:48.205Z,23.83
2019-01-31T00:47:41.856Z,22.90
2019-01-31T00:50:25.248Z,23.40
2019-01-31T00:53:17.453Z,22.07
2019-01-31T00:56:00.204Z,23.10
2019-01-31T00:58:30.683Z,21.90
2019-01-31T01:01:19.012Z,23.07
2019-01-31T01:03:58.548Z,23.57
2019-01-31T01:06:34.784Z,24.50
2019-01-31T01:09:32.533Z,24.53
2019-01-31T01:12:18.365Z,23.53
2019-01-31T01:14:55.042Z,24.30
2019-01-31T01:17:25.497Z,24.00
2019-01-31T01:20:01.598Z,24.30
2019-01-31T01:22:43.760Z,25.47
2019-01-31T01:25:33.745Z,25.23
2019-01-31T01:28:21.094Z,24.23
2019-01-31T01:31:02.340Z,24.67
2019-01-31T01:33:49.918Z,24.80
2019-01-31T01:36:29.486Z,24.13
2019-01-31T01:39:00.001Z,24.00
2019-01-31T01:41:43.589Z,24.87
2019-01-31T01:44:38.115Z,24.53
2019-01-31T01:47:11.552Z,25.17
2019-01-31T01:49:48.162Z,24.90
2019-01-31T01:52:36.990Z,24.77
2019-01-31T01:55:25.935Z,24.80
2019-01-31T01:57:56.177Z,25.33
2019-01-31T02:00:43.182Z,25.90
2019-01-31T02:03:25.167Z,25.80
2019-01-31T02:06:01.163Z,23.67
2019-01-31T02:08:48.140Z,24.67
2019-01-31T02:11:44.489Z,26.00
2019-01-31T02:14:24.037Z,25.53
2019-01-31T02:16:59.938Z,23.73
2019-01-31T02:19:42.598Z,25.80
2019-01-31T02:22:28.281Z,26.80
2019-01-31T02:25:10.666Z,25.30
2019-01-31T02:28:08.067Z,26.70
2019-01-31T02:30:53.796Z,27.20
2019-01-31T02:33:30.111Z,26.47
2019-01-31T02:36:06.352Z,26.30
2019-01-31T02:38:39.221Z,25.67
2019-01-31T02:41:21.986Z,26.60
2019-01-31T02:43:52.352Z,25.80
2019-01-31T02:46:41.149Z,28.70
2019-01-31T02:49:20.671Z,26.03
2019-01-31T02:52:06.254Z,26.70
2019-01-31T02:54:39.383Z,26.53
2019-01-31T02:57:27.829Z,26.07
2019-01-31T03:00:24.298Z,26.40
2019-01-31T03:03:19.218Z,26.73
2019-01-31T03:05:54.298Z,27.77
2019-01-31T03:08:27.549Z,27.37
2019-01-31T03:11:13.261Z,27.73
2019-01-31T03:13:46.700Z,27.43
2019-01-31T03:16:25.873Z,26.80
2019-01-31T03:18:58.914Z,27.90
2019-01-31T03:21:58.481Z,27.70
2019-01-31T03:24:38.112Z,26.90
2019-01-31T03:27:30.160Z,28.10
2019-01-31T03:30:30.731Z,27.93
2019-01-31T03:33:13.098Z,27.77
2019-01-31T03:36:08.046Z,28.23
2019-01-31T03:38:56.278Z,25.70
2019-01-31T03:41:41.666Z,28.47
2019-01-31T03:44:12.139Z,27.13
2019-01-31T03:46:54.372Z,27.83
2019-01-31T03:49:36.681Z,27.30
2019-01-31T03:52:19.444Z,26.37
2019-01-31T03:55:19.027Z,28.17
2019-01-31T03:58:10.914Z,29.10
2019-01-31T04:01:04.194Z,29.50
2019-01-31T04:03:34.750Z,29.63
2019-01-31T04:06:07.697Z,29.83
2019-01-31T04:08:34.229Z,29.43
2019-01-31T04:11:00.965Z,30.20
2019-01-31T04:13:27.697Z,30.20
2019-01-31T04:15:54.262Z,29.90
2019-01-31T04:18:20.889Z,29.67
2019-01-31T04:20:47.541Z,29.43
2019-01-31T04:23:14.176Z,30.23
2019-01-31T04:25:42.246Z,29.47
2019-01-31T04:28:08.888Z,29.80
2019-01-31T04:30:35.447Z,29.37
2019-01-31T04:33:02.385Z,29.20
2019-01-31T04:35:29.064Z,30.53
2019-01-31T04:37:55.798Z,29.40
2019-01-31T04:40:31.149Z,29.27
2019-01-31T04:42:51.002Z,30.50
2019-01-31T04:45:17.665Z,28.17
2019-01-31T04:47:44.316Z,29.97
2019-01-31T04:50:13.001Z,30.50
2019-01-31T04:52:39.638Z,28.87
2019-01-31T04:55:06.903Z,29.63
2019-01-31T04:57:33.546Z,28.33
2019-01-31T05:00:00.256Z,30.00
2019-01-31T05:02:26.765Z,27.57
2019-01-31T05:04:53.424Z,28.70
2019-01-31T05:07:19.965Z,28.40
2019-01-31T05:09:46.431Z,27.80
2019-01-31T05:12:13.076Z,28.40
2019-01-31T05:14:39.699Z,28.23
2019-01-31T05:17:06.351Z,28.83
2019-01-31T05:19:32.884Z,28.67
2019-01-31T05:21:59.453Z,28.13
2019-01-31T05:24:26.205Z,27.07
2019-01-31T05:26:52.771Z,26.37
2019-01-31T05:29:21.002Z,28.13
2019-01-31T05:31:47.770Z,27.73
2019-01-31T05:34:14.719Z,27.13
2019-01-31T05:36:42.376Z,29.10
2019-01-31T05:39:10.622Z,28.20
2019-01-31T05:41:37.905Z,28.50
2019-01-31T05:44:04.449Z,27.67
2019-01-31T05:46:31.024Z,28.67
2019-01-31T05:48:57.679Z,30.73
2019-01-31T05:51:24.353Z,29.03
2019-01-31T05:53:51.180Z,27.80
2019-01-31T05:56:18.030Z,29.87
2019-01-31T05:58:44.577Z,30.00
2019-01-31T06:01:11.152Z,28.63
2019-01-31T06:03:37.678Z,27.57
2019-01-31T06:06:04.241Z,27.80
2019-01-31T06:08:30.788Z,28.60
2019-01-31T06:11:07.186Z,27.77
2019-01-31T06:13:25.798Z,26.77
2019-01-31T06:15:52.377Z,26.77
2019-01-31T06:18:18.906Z,25.53
2019-01-31T06:20:45.529Z,26.90
2019-01-31T06:23:12.171Z,25.97
2019-01-31T06:25:38.854Z,27.37
2019-01-31T06:28:05.592Z,27.40
2019-01-31T06:30:32.292Z,26.90
2019-01-31T06:32:58.941Z,25.33
2019-01-31T06:35:25.494Z,25.63
2019-01-31T06:37:52.138Z,25.37
2019-01-31T06:40:19.896Z,24.90
2019-01-31T06:42:46.604Z,25.40
2019-01-31T06:45:15.741Z,24.20
2019-01-31T06:47:42.609Z,25.37
2019-01-31T06:50:09.153Z,25.07
2019-01-31T06:52:35.922Z,26.13
2019-01-31T06:55:05.062Z,25.60
2019-01-31T06:57:31.628Z,25.47
2019-01-31T06:59:58.266Z,24.13
2019-01-31T07:02:25.293Z,26.23
2019-01-31T07:04:51.789Z,24.27
2019-01-31T07:07:18.355Z,24.10
2019-01-31T07:09:44.894Z,23.73
2019-01-31T07:12:11.453Z,25.50
2019-01-31T07:14:38.084Z,24.07
2019-01-31T07:17:04.759Z,22.80
2019-01-31T07:19:31.394Z,24.87
2019-01-31T07:21:58.066Z,24.70
2019-01-31T07:24:24.680Z,25.40
2019-01-31T07:26:51.345Z,23.57
2019-01-31T07:29:18.013Z,24.07
2019-01-31T07:31:44.727Z,26.17
2019-01-31T07:34:11.318Z,25.30
2019-01-31T07:36:37.999Z,26.60
2019-01-31T07:39:06.022Z,25.73
2019-01-31T07:41:40.938Z,25.83
2019-01-31T07:44:01.122Z,26.23
2019-01-31T07:46:27.730Z,25.00
2019-01-31T07:48:54.269Z,25.90
2019-01-31T07:51:20.808Z,26.40
2019-01-31T07:53:47.377Z,25.90
2019-01-31T07:56:14.015Z,24.60
2019-01-31T07:58:40.587Z,25.27
2019-01-31T08:01:07.121Z,25.43
2019-01-31T08:03:33.711Z,27.07
2019-01-31T08:06:00.340Z,25.63
2019-01-31T08:08:26.913Z,26.37
2019-01-31T08:10:53.557Z,25.30
2019-01-31T08:13:20.329Z,26.47
2019-01-31T08:15:46.869Z,27.00
2019-01-31T08:18:13.426Z,27.90
2019-01-31T08:20:40.070Z,26.87
2019-01-31T08:23:06.644Z,27.47
2019-01-31T08:25:33.287Z,28.83
2019-01-31T08:28:00.550Z,27.13
2019-01-31T08:30:37.835Z,25.70
2019-01-31T08:33:04.750Z,25.57
2019-01-31T08:35:31.589Z,26.53
2019-01-31T08:37:58.263Z,26.67
2019-01-31T08:40:24.969Z,27.37
2019-01-31T08:42:51.668Z,25.90
2019-01-31T08:45:18.207Z,27.20
2019-01-31T08:47:44.878Z,26.07
2019-01-31T08:50:14.837Z,26.23
2019-01-31T08:52:41.795Z,25.50
2019-01-31T08:55:08.647Z,26.53
2019-01-31T08:57:35.414Z,28.20
2019-01-31T09:00:11.678Z,25.73
2019-01-31T09:02:38.465Z,28.00
2019-01-31T09:05:05.903Z,25.73
2019-01-31T09:07:32.578Z,25.17
2019-01-31T09:09:59.090Z,25.40
2019-01-31T09:12:25.658Z,26.37
2019-01-31T09:14:52.249Z,26.00
2019-01-31T09:17:20.318Z,25.20
2019-01-31T09:19:46.861Z,25.50
2019-01-31T09:22:17.369Z,25.20
2019-01-31T09:24:53.869Z,25.90
2019-01-31T09:27:39.093Z,26.03
2019-01-31T09:30:27.637Z,24.37
2019-01-31T09:32:58.010Z,22.97
2019-01-31T09:35:31.097Z,23.30
2019-01-31T09:38:21.320Z,23.03
2019-01-31T09:41:08.508Z,20.27
2019-01-31T09:43:42.188Z,21.67
2019-01-31T09:46:33.647Z,22.37
2019-01-31T09:49:10.146Z,22.30
2019-01-31T09:51:58.681Z,24.00
2019-01-31T09:54:37.793Z,22.63
2019-01-31T09:57:08.242Z,22.63
2019-01-31T10:00:00.589Z,23.40
2019-01-31T10:02:34.157Z,20.77
2019-01-31T10:05:16.215Z,23.93
2019-01-31T10:07:52.114Z,22.47
2019-01-31T10:10:42.504Z,22.97
2019-01-31T10:13:28.100Z,24.07
2019-01-31T10:16:16.751Z,21.87
2019-01-31T10:19:02.120Z,21.80
2019-01-31T10:21:44.042Z,21.47
2019-01-31T10:24:29.610Z,20.60
2019-01-31T10:27:02.990Z,21.00
2019-01-31T10:29:39.762Z,21.40
2019-01-31T10:32:26.749Z,20.07
2019-01-31T10:34:57.198Z,20.80
2019-01-31T10:37:30.332Z,19.97
2019-01-31T10:40:20.923Z,20.93
2019-01-31T10:43:12.698Z,20.27
2019-01-31T10:45:52.129Z,20.73
2019-01-31T10:48:42.700Z,21.20
2019-01-31T10:51:30.193Z,20.97
2019-01-31T10:54:25.096Z,19.80
2019-01-31T10:56:58.440Z,19.47
2019-01-31T10:59:38.155Z,20.67
2019-01-31T11:02:30.187Z,19.30
2019-01-31T11:05:24.565Z,18.40
2019-01-31T11:08:07.147Z,18.37
2019-01-31T11:10:52.464Z,17.70
2019-01-31T11:13:32.002Z,17.57
2019-01-31T11:16:21.419Z,18.50
2019-01-31T11:18:51.913Z,19.10
2019-01-31T11:21:28.679Z,16.80
2019-01-31T11:24:15.693Z,18.30
2019-01-31T11:27:05.697Z,16.40
2019-01-31T11:29:47.884Z,17.67
2019-01-31T11:32:20.671Z,15.90
2019-01-31T11:35:05.477Z,15.97
2019-01-31T11:37:53.765Z,15.67
2019-01-31T11:40:32.738Z,15.97
2019-01-31T11:43:11.811Z,13.30
2019-01-31T11:45:43.618Z,12.50
2019-01-31T11:48:13.719Z,12.60
2019-01-31T11:51:17.289Z,11.00
2019-01-31T11:53:56.245Z,11.50
2019-01-31T11:56:38.630Z,12.23
2019-01-31T11:59:05.497Z,12.80
2019-01-31T12:01:32.592Z,12.20
2019-01-31T12:04:00.895Z,12.40
2019-01-31T12:06:27.148Z,13.03
2019-01-31T12:08:53.815Z,12.97
2019-01-31T12:11:20.076Z,13.80
2019-01-31T12:13:46.317Z,13.70
2019-01-31T12:16:12.602Z,14.77
2019-01-31T12:18:38.839Z,13.40
2019-01-31T12:21:05.077Z,12.93
2019-01-31T12:23:33.474Z,12.77
2019-01-31T12:26:01.764Z,13.43
2019-01-31T12:28:29.752Z,14.40
2019-01-31T12:30:56.426Z,13.17
2019-01-31T12:33:23.160Z,13.00
2019-01-31T12:35:49.936Z,12.13
2019-01-31T12:38:16.502Z,12.67
2019-01-31T12:40:43.190Z,12.23
2019-01-31T12:43:10.122Z,13.37
2019-01-31T12:45:36.842Z,12.40
2019-01-31T12:48:05.199Z,12.20
2019-01-31T12:50:33.394Z,12.43
2019-01-31T12:53:00.162Z,12.30
2019-01-31T12:55:26.792Z,13.17
2019-01-31T12:57:53.580Z,12.00
2019-01-31T13:00:25.440Z,11.53
2019-01-31T13:02:52.681Z,11.00
2019-01-31T13:05:20.550Z,10.97
2019-01-31T13:07:48.888Z,9.50
2019-01-31T13:10:16.574Z,9.30
2019-01-31T13:12:48.826Z,8.80
2019-01-31T13:15:14.868Z,8.20
2019-01-31T13:17:42.298Z,8.50
2019-01-31T13:20:18.105Z,8.90
2019-01-31T13:22:45.601Z,8.33
2019-01-31T13:25:14.246Z,8.87
2019-01-31T13:27:41.488Z,9.43
2019-01-31T13:30:14.382Z,9.70
2019-01-31T13:32:43.020Z,9.53
2019-01-31T13:35:12.012Z,9.87
2019-01-31T13:37:39.448Z,9.20
2019-01-31T13:40:13.553Z,9.20
2019-01-31T13:42:41.219Z,9.37
2019-01-31T13:45:11.414Z,9.53
2019-01-31T13:47:38.052Z,8.27
2019-01-31T13:50:09.638Z,8.30
2019-01-31T13:52:36.273Z,7.90
2019-01-31T13:55:06.865Z,7.97
2019-01-31T13:57:33.501Z,8.27
2019-01-31T14:00:02.087Z,7.80
2019-01-31T14:02:28.861Z,7.47
2019-01-31T14:04:55.472Z,7.20
2019-01-31T14:07:22.011Z,6.90
2019-01-31T14:09:48.602Z,7.50
2019-01-31T14:12:15.233Z,6.57
2019-01-31T14:14:42.014Z,6.73
2019-01-31T14:17:08.645Z,7.53
2019-01-31T14:19:35.334Z,6.70
2019-01-31T14:22:03.128Z,6.50
2019-01-31T14:24:29.923Z,6.40
2019-01-31T14:26:56.601Z,6.40
2019-01-31T14:29:23.290Z,6.47
2019-01-31T14:31:49.936Z,6.13
2019-01-31T14:34:16.652Z,5.90
2019-01-31T14:36:43.295Z,6.77
2019-01-31T14:39:09.930Z,6.23
2019-01-31T14:41:36.623Z,5.53
2019-01-31T14:44:03.614Z,6.10
2019-01-31T14:46:30.294Z,5.77
2019-01-31T14:48:56.969Z,5.23
2019-01-31T14:51:23.770Z,5.77
2019-01-31T14:53:51.222Z,5.43
2019-01-31T14:56:17.907Z,5.60
2019-01-31T14:58:44.547Z,5.40
2019-01-31T15:01:11.251Z,6.07
2019-01-31T15:03:38.892Z,5.80
2019-01-31T15:06:05.559Z,6.07
2019-01-31T15:08:32.241Z,5.67
2019-01-31T15:10:59.186Z,5.90
2019-01-31T15:13:25.827Z,5.53
2019-01-31T15:15:52.509Z,6.53
2019-01-31T15:18:21.270Z,6.17
2019-01-31T15:20:48.655Z,6.03
2019-01-31T15:23:15.984Z,5.80
2019-01-31T15:25:42.750Z,5.80
2019-01-31T15:28:09.488Z,6.30
2019-01-31T15:30:36.695Z,6.33
2019-01-31T15:33:06.644Z,6.90
2019-01-31T15:35:33.325Z,5.87
2019-01-31T15:37:59.920Z,5.57
2019-01-31T15:40:33.157Z,6.77
2019-01-31T15:43:00.059Z,6.73
2019-01-31T15:45:26.796Z,6.60
2019-01-31T15:47:53.466Z,6.60
2019-01-31T15:50:20.356Z,5.93
2019-01-31T15:52:47.010Z,6.80
2019-01-31T15:55:16.801Z,6.67
2019-01-31T15:57:43.346Z,7.43
2019-01-31T16:00:20.484Z,6.83
2019-01-31T16:02:47.428Z,8.30
2019-01-31T16:05:19.028Z,7.60
2019-01-31T16:07:42.558Z,7.43
2019-01-31T16:10:09.449Z,8.13
2019-01-31T16:12:35.973Z,8.63
2019-01-31T16:15:06.037Z,8.23
2019-01-31T16:17:32.548Z,8.10
2019-01-31T16:19:59.342Z,7.60
2019-01-31T16:22:26.138Z,8.97
2019-01-31T16:24:52.850Z,7.70
2019-01-31T16:27:19.440Z,8.33
2019-01-31T16:29:46.390Z,8.03
2019-01-31T16:32:13.741Z,8.33
2019-01-31T16:34:40.752Z,8.30
2019-01-31T16:37:07.322Z,8.70
2019-01-31T16:39:35.718Z,9.20
2019-01-31T16:42:02.641Z,8.33
2019-01-31T16:44:29.186Z,8.50
2019-01-31T16:46:56.166Z,9.27
2019-01-31T16:49:22.845Z,9.23
2019-01-31T16:51:49.400Z,10.77
2019-01-31T16:54:16.088Z,10.53
2019-01-31T16:56:42.778Z,11.10
2019-01-31T16:59:09.907Z,10.90
2019-01-31T17:01:36.542Z,11.57
2019-01-31T17:04:04.212Z,12.03
2019-01-31T17:06:30.808Z,12.27
2019-01-31T17:08:57.621Z,12.53
2019-01-31T17:11:25.009Z,13.90
2019-01-31T17:13:51.738Z,12.80
2019-01-31T17:16:18.492Z,11.60
2019-01-31T17:18:45.301Z,12.47
2019-01-31T17:21:13.167Z,14.50
2019-01-31T17:23:39.838Z,12.77
2019-01-31T17:26:06.422Z,12.47
2019-01-31T17:28:33.127Z,12.60
2019-01-31T17:30:59.967Z,13.10
2019-01-31T17:33:26.550Z,13.60
2019-01-31T17:35:53.325Z,13.27
2019-01-31T17:38:20.173Z,15.57
2019-01-31T17:40:47.057Z,12.03
2019-01-31T17:43:13.831Z,12.53
2019-01-31T17:45:40.866Z,13.80
2019-01-31T17:48:08.969Z,13.57
2019-01-31T17:50:36.358Z,13.20
2019-01-31T17:53:03.711Z,13.30
2019-01-31T17:55:30.685Z,13.23
2019-01-31T17:57:58.630Z,13.40
2019-01-31T18:00:36.427Z,12.50
2019-01-31T18:03:05.419Z,13.73
2019-01-31T18:05:32.577Z,14.07
2019-01-31T18:07:59.546Z,15.37
2019-01-31T18:10:26.599Z,13.53
2019-01-31T18:12:54.457Z,13.10
2019-01-31T18:15:22.089Z,14.47
2019-01-31T18:17:49.973Z,14.00
2019-01-31T18:20:20.207Z,13.97
2019-01-31T18:22:47.266Z,14.13
2019-01-31T18:25:14.940Z,14.20
2019-01-31T18:27:42.733Z,14.60
2019-01-31T18:30:18.711Z,14.20
2019-01-31T18:32:46.609Z,16.07
2019-01-31T18:35:14.340Z,14.70
2019-01-31T18:37:42.147Z,17.20
2019-01-31T18:40:15.668Z,17.50
2019-01-31T18:42:43.809Z,17.70
2019-01-31T18:45:14.370Z,17.73
2019-01-31T18:47:41.918Z,18.43
2019-01-31T18:50:15.633Z,17.97
2019-01-31T18:52:45.228Z,19.20
2019-01-31T18:55:13.640Z,16.80
2019-01-31T18:57:41.660Z,20.20
2019-01-31T19:00:22.936Z,18.03
2019-01-31T19:02:52.665Z,18.40
2019-01-31T19:05:20.926Z,18.40
2019-01-31T19:07:49.070Z,19.93
2019-01-31T19:10:17.397Z,21.00
2019-01-31T19:12:45.235Z,20.27
2019-01-31T19:15:17.809Z,21.20
2019-01-31T19:17:45.454Z,21.03
2019-01-31T19:20:18.510Z,21.37
2019-01-31T19:22:46.958Z,21.27
2019-01-31T19:25:15.169Z,20.57
2019-01-31T19:27:43.414Z,20.60
2019-01-31T19:30:20.113Z,23.13
2019-01-31T19:32:48.357Z,22.07
2019-01-31T19:35:16.832Z,22.80
2019-01-31T19:37:45.215Z,23.00
2019-01-31T19:40:15.982Z,23.17
2019-01-31T19:42:43.886Z,23.77
2019-01-31T19:45:26.381Z,22.43
2019-01-31T19:47:54.655Z,22.63
2019-01-31T19:50:22.976Z,24.50
2019-01-31T19:52:53.206Z,24.73
2019-01-31T19:55:21.430Z,23.90
2019-01-31T19:57:49.742Z,24.20
2019-01-31T20:00:23.391Z,24.20
2019-01-31T20:02:51.728Z,26.67
2019-01-31T20:05:20.213Z,24.00
2019-01-31T20:07:48.950Z,25.70
2019-01-31T20:10:19.509Z,24.53
2019-01-31T20:12:47.863Z,23.53
2019-01-31T20:15:16.197Z,24.37
2019-01-31T20:17:44.309Z,23.77
2019-01-31T20:20:21.014Z,25.87
2019-01-31T20:22:50.014Z,24.77
2019-01-31T20:25:18.558Z,26.73
2019-01-31T20:27:46.865Z,27.70
2019-01-31T20:30:20.168Z,25.80
2019-01-31T20:32:48.462Z,27.27
2019-01-31T20:35:18.428Z,28.27
2019-01-31T20:37:46.909Z,27.97
2019-01-31T20:40:28.930Z,27.23
2019-01-31T20:42:56.880Z,28.47
2019-01-31T20:45:25.285Z,27.90
2019-01-31T20:47:53.567Z,28.37
2019-01-31T20:50:32.178Z,28.57
2019-01-31T20:53:00.426Z,27.90
2019-01-31T20:55:28.900Z,28.73
2019-01-31T20:57:57.422Z,28.77
2019-01-31T21:00:36.914Z,30.13
2019-01-31T21:03:07.589Z,28.73
2019-01-31T21:05:36.080Z,29.23
2019-01-31T21:08:05.224Z,30.90
2019-01-31T21:10:33.555Z,29.73
2019-01-31T21:13:01.619Z,29.40
2019-01-31T21:15:29.754Z,29.17
2019-01-31T21:17:57.673Z,29.87
2019-01-31T21:20:26.764Z,31.03
2019-01-31T21:22:54.849Z,29.57
2019-01-31T21:25:23.069Z,30.57
2019-01-31T21:27:51.095Z,30.17
2019-01-31T21:30:24.386Z,30.93
2019-01-31T21:32:52.253Z,30.47
2019-01-31T21:35:20.665Z,30.00
2019-01-31T21:37:48.029Z,30.40
2019-01-31T21:40:17.631Z,30.43
2019-01-31T21:42:44.400Z,30.77
2019-01-31T21:45:17.384Z,29.87
2019-01-31T21:47:44.237Z,31.80
2019-01-31T21:50:17.218Z,32.20
2019-01-31T21:52:43.887Z,30.87
2019-01-31T21:55:12.409Z,31.77
2019-01-31T21:57:38.983Z,32.53
2019-01-31T22:00:12.489Z,32.10
2019-01-31T22:02:39.236Z,31.00
2019-01-31T22:05:09.569Z,33.40
2019-01-31T22:07:37.141Z,32.20
2019-01-31T22:10:07.292Z,32.93
2019-01-31T22:12:34.298Z,31.13
2019-01-31T22:15:00.982Z,32.70
2019-01-31T22:17:28.095Z,32.80
2019-01-31T22:19:54.804Z,32.20
2019-01-31T22:22:21.407Z,32.70
2019-01-31T22:24:48.098Z,31.80
2019-01-31T22:27:14.851Z,31.80
2019-01-31T22:29:43.102Z,31.40
2019-01-31T22:32:09.791Z,32.73
2019-01-31T22:34:37.118Z,32.00
2019-01-31T22:37:04.510Z,31.23
2019-01-31T22:39:31.151Z,34.10
2019-01-31T22:41:57.861Z,34.30
2019-01-31T22:44:24.546Z,32.00
2019-01-31T22:46:51.358Z,33.97
2019-01-31T22:49:18.896Z,32.23
2019-01-31T22:51:45.536Z,31.10
2019-01-31T22:54:12.225Z,33.27
2019-01-31T22:56:38.918Z,34.00
2019-01-31T22:59:05.499Z,31.80
2019-01-31T23:01:34.288Z,31.63
2019-01-31T23:04:00.855Z,31.93
2019-01-31T23:06:29.181Z,30.60
2019-01-31T23:08:57.650Z,32.37
2019-01-31T23:11:24.199Z,31.93
2019-01-31T23:13:51.041Z,32.40
2019-01-31T23:16:17.726Z,34.13
2019-01-31T23:18:44.377Z,33.37
2019-01-31T23:21:11.049Z,32.83
2019-01-31T23:23:37.724Z,35.90
2019-01-31T23:26:06.014Z,31.60
2019-01-31T23:28:34.386Z,33.37
2019-01-31T23:31:01.250Z,33.13
2019-01-31T23:33:27.955Z,31.67
2019-01-31T23:35:54.578Z,31.53
2019-01-31T23:38:21.227Z,34.87
2019-01-31T23:40:47.913Z,33.70
2019-01-31T23:43:14.661Z,34.80
2019-01-31T23:45:41.194Z,33.33
2019-01-31T23:48:07.938Z,35.67
2019-01-31T23:50:34.439Z,36.83
2019-01-31T23:53:01.333Z,32.70
2019-01-31T23:55:29.578Z,36.27
2019-01-31T23:57:57.660Z,35.60
